createdAt,value
2018-05-21T17:36:59.129Z,23.90
2018-05-21T17:39:25.094Z,23.90
2018-05-21T17:41:51.050Z,23.70
2018-05-21T17:44:17.044Z,23.40
2018-05-21T17:46:43.094Z,23.30
2018-05-21T17:49:09.531Z,23.20
2018-05-21T17:51:35.577Z,23.10
2018-05-21T17:54:01.576Z,23.00
2018-05-21T17:56:27.628Z,22.80
2018-05-21T17:58:54.354Z,22.50
2018-05-21T18:01:20.314Z,22.50
2018-05-21T18:03:47.081Z,22.40
2018-05-21T18:06:13.229Z,22.40
2018-05-21T18:08:39.434Z,22.30
2018-05-21T18:11:06.912Z,22.00
2018-05-21T18:13:33.642Z,21.90
2018-05-21T18:15:59.659Z,21.90
2018-05-21T18:18:25.668Z,21.80
2018-05-21T18:20:51.638Z,21.60
2018-05-21T18:23:17.642Z,21.50
2018-05-21T18:25:43.676Z,21.50
2018-05-21T18:28:09.722Z,21.30
2018-05-21T18:30:35.688Z,21.20
2018-05-21T18:33:01.664Z,21.20
2018-05-21T18:35:28.349Z,21.20
2018-05-21T18:37:54.331Z,21.10
2018-05-21T18:40:20.343Z,21.00
2018-05-21T18:42:46.335Z,21.00
2018-05-21T18:45:13.433Z,20.70
2018-05-21T18:47:39.451Z,20.70
2018-05-21T18:50:05.398Z,20.50
2018-05-21T18:52:31.392Z,20.40
2018-05-21T18:54:58.101Z,20.40
2018-05-21T18:57:24.070Z,20.40
2018-05-21T18:59:50.061Z,20.10
2018-05-21T19:02:16.024Z,20.10
2018-05-21T19:04:42.005Z,20.10
2018-05-21T19:07:08.408Z,20.00
2018-05-21T19:09:34.423Z,19.90
2018-05-21T19:12:00.388Z,19.80
2018-05-21T19:14:26.346Z,19.60
2018-05-21T19:16:53.133Z,19.40
2018-05-21T19:19:19.124Z,19.40
2018-05-21T19:21:45.189Z,19.50
2018-05-21T19:24:11.950Z,19.20
2018-05-21T19:26:38.373Z,19.20
2018-05-21T19:29:04.290Z,19.20
2018-05-21T19:31:30.291Z,19.20
2018-05-21T19:56:42.350Z,18.70
2018-05-21T19:59:08.419Z,18.80
2018-05-21T20:01:34.419Z,18.70
2018-05-21T20:04:01.119Z,18.50
2018-05-21T20:06:27.098Z,18.40
2018-05-21T20:08:53.790Z,18.40
2018-05-21T20:11:19.761Z,18.40
2018-05-21T20:13:45.734Z,18.20
2018-05-21T20:16:12.531Z,18.30
2018-05-21T20:18:38.492Z,18.20
2018-05-21T20:21:04.488Z,18.20
2018-05-21T20:23:30.795Z,17.90
2018-05-21T20:25:57.547Z,17.90
2018-05-21T20:28:24.298Z,17.90
2018-05-21T20:30:51.010Z,17.80
2018-05-21T20:33:17.007Z,17.80
2018-05-21T20:35:43.730Z,17.80
2018-05-21T20:38:09.700Z,17.80
2018-05-21T20:40:35.689Z,17.70
2018-05-21T20:43:01.696Z,17.60
2018-05-21T20:45:27.798Z,17.60
2018-05-21T20:47:53.698Z,17.40
2018-05-21T20:50:19.693Z,17.40
2018-05-21T20:52:45.662Z,17.50
2018-05-21T20:55:11.692Z,17.30
2018-05-21T20:57:38.341Z,17.50
2018-05-21T21:00:04.260Z,17.70
2018-05-21T21:02:30.220Z,17.30
2018-05-21T21:04:56.229Z,17.20
2018-05-21T21:07:22.173Z,17.10
2018-05-21T21:09:48.183Z,17.00
2018-05-21T21:12:14.146Z,17.20
2018-05-21T21:14:40.141Z,17.30
2018-05-21T21:17:06.906Z,17.00
2018-05-21T21:19:32.902Z,17.00
2018-05-21T21:21:58.860Z,16.90
2018-05-21T21:24:25.607Z,16.80
2018-05-21T21:26:51.556Z,16.80
2018-05-21T21:29:18.256Z,16.70
2018-05-21T21:31:44.231Z,16.70
2018-05-21T21:34:10.986Z,16.90
2018-05-21T21:36:36.966Z,16.90
2018-05-21T21:39:02.954Z,16.80
2018-05-21T21:41:28.933Z,16.60
2018-05-21T21:43:54.918Z,16.60
2018-05-21T21:46:20.886Z,16.50
2018-05-21T21:48:47.623Z,16.30
2018-05-21T21:51:14.375Z,16.20
2018-05-21T21:53:40.368Z,16.20
2018-05-21T21:56:06.318Z,16.00
2018-05-21T21:58:32.325Z,16.10
2018-05-21T22:00:58.390Z,16.10
2018-05-21T22:03:24.379Z,16.20
2018-05-21T22:05:51.109Z,16.00
2018-05-21T22:08:17.054Z,16.00
2018-05-21T22:10:43.783Z,15.80
2018-05-21T22:13:09.782Z,15.80
2018-05-21T22:15:35.785Z,15.80
2018-05-21T22:18:02.506Z,15.70
2018-05-21T22:20:28.514Z,15.70
2018-05-21T22:22:54.512Z,15.70
2018-05-21T22:25:21.318Z,15.60
2018-05-21T22:27:47.296Z,15.50
2018-05-21T22:30:13.262Z,15.60
2018-05-21T22:32:39.264Z,15.50
2018-05-21T22:35:05.229Z,15.40
2018-05-21T22:37:31.234Z,15.50
2018-05-21T22:39:57.283Z,15.30
2018-05-21T22:42:23.199Z,15.30
2018-05-21T22:44:49.143Z,15.10
2018-05-21T22:47:15.143Z,15.40
2018-05-21T22:49:41.156Z,15.60
2018-05-21T22:52:07.175Z,15.50
2018-05-21T22:54:34.781Z,15.30
2018-05-21T22:57:00.751Z,15.30
2018-05-21T22:59:26.759Z,15.20
2018-05-21T23:01:52.746Z,14.90
2018-05-21T23:04:19.435Z,14.70
2018-05-21T23:06:45.415Z,14.60
2018-05-21T23:09:11.393Z,14.50
2018-05-21T23:11:37.410Z,14.70
2018-05-21T23:14:03.374Z,14.70
2018-05-21T23:16:29.314Z,14.40
2018-05-21T23:18:55.326Z,14.50
2018-05-21T23:21:22.170Z,14.30
2018-05-21T23:23:48.144Z,14.30
2018-05-21T23:26:14.104Z,14.30
2018-05-21T23:28:40.106Z,14.10
2018-05-21T23:31:06.106Z,14.00
2018-05-21T23:33:32.094Z,13.90
2018-05-21T23:35:58.175Z,13.80
2018-05-21T23:38:24.145Z,13.90
2018-05-21T23:40:50.119Z,13.90
2018-05-21T23:43:16.076Z,13.80
2018-05-21T23:45:42.104Z,13.80
2018-05-21T23:48:08.090Z,14.00
2018-05-21T23:50:34.065Z,13.90
2018-05-21T23:53:00.039Z,14.30
2018-05-21T23:55:26.032Z,13.90
2018-05-21T23:57:52.069Z,14.30
